Time;durP1;ratioP1;P1;durP2;ratioP2;P2;SDS_P1;SDS_P2;PMS_P1;PMS_P2;Temp;Humidity;BMP_temperature;BMP_pressure;BME280_temperature;BME280_humidity;BME280_pressure;Samples;Min_cycle;Max_cycle;Signal;HPM_P1;HPM_P2
2023/11/17 00:01:45;;;;;;;9.45;5.22;;;2.30;99.90;;;;;;4926949;29;20418;-88
2023/11/17 00:04:14;;;;;;;10.15;5.05;;;2.40;99.90;;;;;;4920143;29;20094;-87
2023/11/17 00:06:41;;;;;;;9.05;5.07;;;2.80;99.90;;;;;;4936197;29;20040;-87
2023/11/17 00:09:10;;;;;;;8.63;4.53;;;2.40;99.90;;;;;;4923975;29;20052;-88
2023/11/17 00:11:38;;;;;;;8.43;4.68;;;2.60;99.90;;;;;;4924643;29;21951;-88
2023/11/17 00:14:05;;;;;;;10.05;4.30;;;2.40;99.90;;;;;;4917268;29;20048;-88
2023/11/17 00:16:31;;;;;;;9.27;4.22;;;2.40;99.90;;;;;;4916997;29;20821;-89
2023/11/17 00:18:59;;;;;;;7.15;3.97;;;2.40;99.90;;;;;;4935452;29;20048;-87
2023/11/17 00:21:26;;;;;;;8.27;4.72;;;2.40;99.90;;;;;;4923544;29;20113;-88
2023/11/17 00:23:52;;;;;;;8.27;4.03;;;2.40;99.90;;;;;;4925557;29;20057;-88
2023/11/17 00:26:20;;;;;;;8.48;3.95;;;2.40;99.90;;;;;;4932580;29;20506;-88
2023/11/17 00:28:48;;;;;;;7.43;4.07;;;2.30;99.90;;;;;;4932391;29;20077;-88
2023/11/17 00:31:15;;;;;;;8.48;4.20;;;2.40;99.90;;;;;;4930082;29;20045;-88
2023/11/17 00:33:42;;;;;;;7.93;4.60;;;2.30;99.90;;;;;;4916565;29;20100;-88
2023/11/17 00:36:09;;;;;;;6.85;4.13;;;2.40;99.90;;;;;;4944767;29;20037;-88
2023/11/17 00:38:36;;;;;;;7.32;4.65;;;2.40;99.90;;;;;;4916862;29;20044;-88
2023/11/17 00:41:04;;;;;;;9.90;4.72;;;2.40;99.90;;;;;;4930498;29;20037;-88
2023/11/17 00:43:31;;;;;;;7.20;4.53;;;2.40;99.90;;;;;;4919469;29;20120;-88
2023/11/17 00:46:00;;;;;;;9.10;4.50;;;2.40;99.90;;;;;;4916440;29;20139;-88
2023/11/17 00:48:31;;;;;;;9.48;4.78;;;2.40;99.90;;;;;;4917794;29;20040;-88
2023/11/17 00:50:58;;;;;;;8.10;4.15;;;3.10;99.90;;;;;;4935150;29;20040;-88
2023/11/17 00:53:26;;;;;;;7.75;3.97;;;2.40;99.90;;;;;;4922590;29;20044;-88
2023/11/17 00:55:53;;;;;;;7.63;4.70;;;3.10;99.90;;;;;;4935391;29;20051;-88
2023/11/17 00:58:20;;;;;;;7.25;4.18;;;2.40;99.90;;;;;;4931971;29;20040;-88
2023/11/17 01:00:47;;;;;;;12.05;4.55;;;2.40;99.90;;;;;;4915965;29;20077;-88
2023/11/17 01:03:16;;;;;;;8.80;4.70;;;2.40;99.90;;;;;;4900824;29;20840;-88
2023/11/17 01:05:42;;;;;;;7.95;4.45;;;2.40;99.90;;;;;;4942163;29;20047;-88
2023/11/17 01:08:10;;;;;;;7.35;4.55;;;2.30;99.90;;;;;;4933682;29;20128;-87
2023/11/17 01:10:37;;;;;;;9.73;4.88;;;2.30;99.90;;;;;;4924046;29;20136;-88
2023/11/17 01:13:05;;;;;;;7.55;4.70;;;2.30;99.90;;;;;;4921263;29;20516;-89
2023/11/17 01:15:34;;;;;;;7.72;4.63;;;2.30;99.90;;;;;;4920151;29;20409;-88
2023/11/17 01:18:01;;;;;;;9.15;5.00;;;2.30;99.90;;;;;;4905196;29;20203;-88
2023/11/17 01:20:28;;;;;;;8.73;4.82;;;2.30;99.90;;;;;;4915754;29;20450;-87
2023/11/17 01:22:55;;;;;;;10.65;4.80;;;2.60;99.90;;;;;;4925594;29;20048;-88
2023/11/17 01:25:21;;;;;;;8.95;4.82;;;2.30;99.90;;;;;;4922459;29;20045;-88
2023/11/17 01:27:50;;;;;;;8.13;4.88;;;2.30;99.90;;;;;;4915942;29;20059;-88
2023/11/17 01:30:17;;;;;;;8.70;4.80;;;2.20;99.90;;;;;;4915672;29;20047;-88
2023/11/17 01:32:44;;;;;;;13.30;4.78;;;2.20;99.90;;;;;;4903012;29;20045;-88
2023/11/17 01:35:11;;;;;;;10.25;4.97;;;2.20;99.90;;;;;;4915871;29;20055;-88
2023/11/17 01:37:37;;;;;;;10.45;5.20;;;2.30;99.90;;;;;;4920771;29;20514;-88
2023/11/17 01:40:08;;;;;;;8.77;4.97;;;2.40;99.90;;;;;;4938532;29;20045;-88
2023/11/17 01:42:36;;;;;;;9.60;5.22;;;2.40;99.90;;;;;;4928018;29;20049;-88
2023/11/17 01:45:07;;;;;;;12.45;5.18;;;2.60;99.90;;;;;;4934229;29;20051;-87
2023/11/17 01:47:39;;;;;;;12.05;5.30;;;2.40;99.90;;;;;;4926951;29;20048;-88
2023/11/17 01:50:09;;;;;;;11.40;5.28;;;2.40;99.90;;;;;;4915373;29;20048;-88
2023/11/17 01:52:38;;;;;;;9.35;4.88;;;2.40;99.90;;;;;;4931026;29;20076;-88
2023/11/17 01:55:05;;;;;;;9.13;5.00;;;2.50;99.90;;;;;;4918392;29;20051;-88
2023/11/17 01:57:35;;;;;;;9.52;5.60;;;2.50;99.90;;;;;;4909727;29;20040;-88
2023/11/17 02:00:06;;;;;;;8.43;4.85;;;2.80;99.90;;;;;;4936080;29;20056;-87
2023/11/17 02:02:38;;;;;;;10.30;5.20;;;2.50;99.90;;;;;;4942678;29;20655;-87
2023/11/17 02:05:07;;;;;;;11.10;4.78;;;2.40;99.90;;;;;;4948828;29;20123;-87
2023/11/17 02:08:01;;;;;;;7.70;4.75;;;2.40;99.90;;;;;;4934761;29;20413;-87
2023/11/17 02:10:42;;;;;;;9.35;4.63;;;2.40;99.90;;;;;;4918622;29;20064;-87
2023/11/17 02:13:25;;;;;;;9.30;5.05;;;2.40;99.90;;;;;;4947099;29;20481;-88
2023/11/17 02:15:54;;;;;;;7.65;4.60;;;2.30;99.90;;;;;;4919287;29;20033;-88
2023/11/17 02:18:23;;;;;;;9.25;4.15;;;2.90;99.90;;;;;;4919203;29;20037;-87
2023/11/17 02:20:52;;;;;;;11.75;5.00;;;2.40;99.90;;;;;;4930700;29;20044;-88
2023/11/17 02:23:24;;;;;;;8.27;4.43;;;2.40;99.90;;;;;;4919183;29;20053;-88
2023/11/17 02:26:15;;;;;;;11.27;5.00;;;2.40;99.90;;;;;;4929378;29;20541;-88
2023/11/17 02:29:06;;;;;;;9.80;4.55;;;2.50;99.90;;;;;;4927399;29;20044;-88
2023/11/17 02:31:35;;;;;;;7.75;4.45;;;2.50;99.90;;;;;;4915312;29;20424;-88
2023/11/17 02:34:08;;;;;;;9.05;4.75;;;2.60;99.90;;;;;;4935725;29;20096;-88
2023/11/17 02:36:38;;;;;;;8.25;4.38;;;2.60;99.90;;;;;;4918658;29;20085;-88
2023/11/17 02:39:25;;;;;;;9.48;4.68;;;3.00;99.90;;;;;;4930880;29;20044;-87
2023/11/17 02:41:58;;;;;;;11.05;4.35;;;3.40;99.90;;;;;;4946537;29;20054;-88
2023/11/17 02:44:33;;;;;;;9.70;4.32;;;3.50;99.90;;;;;;4918566;29;20048;-88
2023/11/17 02:47:03;;;;;;;7.53;4.20;;;2.90;99.90;;;;;;4918383;29;20055;-87
2023/11/17 02:49:42;;;;;;;8.85;4.38;;;2.90;99.90;;;;;;4917916;29;20055;-87
2023/11/17 02:52:23;;;;;;;9.45;4.38;;;3.00;99.90;;;;;;4936323;29;20055;-88
2023/11/17 02:54:51;;;;;;;11.10;5.75;;;3.00;99.90;;;;;;4934555;29;20455;-87
2023/11/17 02:57:22;;;;;;;8.70;4.68;;;3.00;99.90;;;;;;4930015;29;20114;-88
2023/11/17 02:59:51;;;;;;;10.32;4.45;;;3.10;99.90;;;;;;4919953;29;20060;-87
2023/11/17 03:02:19;;;;;;;9.82;5.35;;;3.10;99.90;;;;;;4937223;29;20044;-88
2023/11/17 03:04:52;;;;;;;9.68;5.10;;;3.20;99.90;;;;;;4935777;29;20047;-87
2023/11/17 03:07:19;;;;;;;11.18;5.20;;;3.20;99.90;;;;;;4926403;29;20036;-88
2023/11/17 03:09:47;;;;;;;8.25;5.05;;;3.70;99.90;;;;;;4932010;29;20051;-87
2023/11/17 03:12:14;;;;;;;7.22;4.60;;;3.20;99.90;;;;;;4924128;29;20080;-88
2023/11/17 03:14:40;;;;;;;12.45;5.05;;;3.30;99.90;;;;;;4933424;29;20079;-88
2023/11/17 03:17:09;;;;;;;8.38;4.63;;;3.30;99.90;;;;;;4936123;29;20044;-87
2023/11/17 03:19:40;;;;;;;8.35;4.93;;;3.20;99.90;;;;;;4918236;29;20045;-88
2023/11/17 03:22:06;;;;;;;8.13;4.35;;;3.20;99.90;;;;;;4917995;29;20040;-88
2023/11/17 03:24:34;;;;;;;8.63;4.53;;;3.20;99.90;;;;;;4937010;29;20044;-88
2023/11/17 03:27:00;;;;;;;7.35;4.50;;;3.20;99.90;;;;;;4936846;29;20136;-88
2023/11/17 03:29:33;;;;;;;10.50;4.72;;;3.20;99.90;;;;;;4920154;29;20247;-88
2023/11/17 03:32:00;;;;;;;9.65;4.57;;;3.20;99.90;;;;;;4917695;29;20104;-88
2023/11/17 03:34:29;;;;;;;7.38;4.38;;;3.30;99.90;;;;;;4918746;29;20123;-88
2023/11/17 03:37:00;;;;;;;8.60;4.60;;;3.30;99.90;;;;;;4945387;29;20532;-88
2023/11/17 03:39:31;;;;;;;8.38;4.13;;;3.30;99.90;;;;;;4930570;29;20032;-88
2023/11/17 03:41:59;;;;;;;12.52;4.75;;;3.40;99.90;;;;;;4934165;29;20621;-88
2023/11/17 03:44:27;;;;;;;13.20;5.53;;;3.40;99.90;;;;;;4928738;29;20525;-88
2023/11/17 03:46:55;;;;;;;7.82;4.35;;;4.40;99.90;;;;;;4915434;29;20051;-88
2023/11/17 03:49:22;;;;;;;8.30;4.47;;;3.50;99.90;;;;;;4931737;29;20048;-88
2023/11/17 03:51:53;;;;;;;11.48;4.13;;;3.60;99.90;;;;;;4921170;29;20051;-88
2023/11/17 03:54:21;;;;;;;9.35;4.30;;;3.50;99.90;;;;;;4917482;29;20083;-88
2023/11/17 03:56:52;;;;;;;8.18;3.90;;;3.50;99.90;;;;;;4936035;29;20040;-88
2023/11/17 03:59:21;;;;;;;7.35;4.07;;;3.80;99.90;;;;;;4925511;29;20045;-88
2023/11/17 04:01:49;;;;;;;8.98;4.13;;;3.50;99.90;;;;;;4922195;29;20075;-88
2023/11/17 04:04:17;;;;;;;7.32;4.10;;;3.40;99.90;;;;;;4936209;29;20127;-88
2023/11/17 04:06:50;;;;;;;10.95;3.90;;;3.50;99.90;;;;;;4917792;29;20095;-88
2023/11/17 04:09:20;;;;;;;13.25;4.20;;;3.40;99.90;;;;;;4933473;29;20048;-88
2023/11/17 04:11:48;;;;;;;7.72;3.92;;;3.40;99.90;;;;;;4927962;29;20131;-88
2023/11/17 04:14:15;;;;;;;7.05;3.90;;;3.30;99.90;;;;;;4916955;29;20036;-87
2023/11/17 04:16:42;;;;;;;9.10;3.70;;;3.30;99.90;;;;;;4915465;29;20040;-88
2023/11/17 04:19:09;;;;;;;7.88;3.67;;;3.30;99.90;;;;;;4942619;29;20051;-88
2023/11/17 04:21:35;;;;;;;7.03;3.97;;;3.20;99.90;;;;;;4945288;29;20037;-88
2023/11/17 04:24:02;;;;;;;6.88;3.97;;;4.00;99.90;;;;;;4933087;29;20100;-88
2023/11/17 04:26:29;;;;;;;8.13;3.58;;;3.10;99.90;;;;;;4917164;29;20581;-88
2023/11/17 04:28:56;;;;;;;7.95;4.13;;;3.10;99.90;;;;;;4929295;29;20085;-88
2023/11/17 04:31:23;;;;;;;7.97;3.33;;;3.10;99.90;;;;;;4950975;29;20032;-87
2023/11/17 04:33:50;;;;;;;9.23;4.22;;;3.70;99.90;;;;;;4935314;29;20040;-87
2023/11/17 04:36:17;;;;;;;9.07;4.13;;;3.10;99.90;;;;;;4939203;29;20512;-88
2023/11/17 04:38:43;;;;;;;8.93;4.20;;;4.10;99.90;;;;;;4935380;29;20092;-88
2023/11/17 04:41:12;;;;;;;13.23;4.05;;;3.00;99.90;;;;;;4928160;29;20064;-88
2023/11/17 04:43:38;;;;;;;9.25;3.97;;;3.00;99.90;;;;;;4945745;29;20131;-88
2023/11/17 04:46:06;;;;;;;9.05;4.30;;;2.90;99.90;;;;;;4935510;29;20130;-88
2023/11/17 04:48:33;;;;;;;9.95;4.45;;;2.90;99.90;;;;;;4920863;29;20415;-88
2023/11/17 04:51:00;;;;;;;9.05;4.18;;;2.90;99.90;;;;;;4924501;29;20079;-87
2023/11/17 04:53:27;;;;;;;10.32;4.28;;;2.90;99.90;;;;;;4920101;29;20115;-88
2023/11/17 04:55:54;;;;;;;8.52;4.50;;;2.90;99.90;;;;;;4916346;29;20038;-88
2023/11/17 04:58:20;;;;;;;10.98;4.38;;;3.90;99.90;;;;;;4934897;29;20036;-88
2023/11/17 05:00:47;;;;;;;8.10;4.65;;;2.90;99.90;;;;;;4925609;29;20088;-88
2023/11/17 05:03:14;;;;;;;7.03;4.00;;;3.00;99.90;;;;;;4932155;29;20036;-87
2023/11/17 05:05:42;;;;;;;9.50;4.28;;;2.90;99.90;;;;;;4925018;29;20040;-87
2023/11/17 05:08:09;;;;;;;8.93;4.28;;;3.40;99.90;;;;;;4935880;29;20051;-87
2023/11/17 05:10:36;;;;;;;8.93;4.38;;;2.90;99.90;;;;;;4934550;29;20508;-87
2023/11/17 05:13:02;;;;;;;6.50;3.92;;;2.90;99.90;;;;;;4929968;29;20045;-87
2023/11/17 05:15:29;;;;;;;11.90;4.35;;;2.90;99.90;;;;;;4944127;29;20047;-88
2023/11/17 05:17:55;;;;;;;9.38;5.07;;;3.30;99.90;;;;;;4923158;29;20040;-88
2023/11/17 05:20:25;;;;;;;9.45;4.70;;;2.80;99.90;;;;;;4929419;29;20040;-87
2023/11/17 05:22:52;;;;;;;7.78;4.57;;;2.80;99.90;;;;;;4931736;29;20048;-87
2023/11/17 05:25:19;;;;;;;10.65;4.40;;;2.70;99.90;;;;;;4907023;29;20049;-87
2023/11/17 05:27:49;;;;;;;9.32;4.45;;;2.70;99.90;;;;;;4912257;29;20052;-88
2023/11/17 05:30:16;;;;;;;8.60;4.25;;;2.90;99.90;;;;;;4925652;29;20046;-87
2023/11/17 05:32:44;;;;;;;7.95;4.57;;;2.70;99.90;;;;;;4917923;29;20426;-87
2023/11/17 05:35:10;;;;;;;8.40;4.63;;;2.70;99.90;;;;;;4926378;29;20047;-88
2023/11/17 05:37:37;;;;;;;9.45;4.57;;;2.70;99.90;;;;;;4934476;29;20036;-87
2023/11/17 05:40:08;;;;;;;10.95;4.85;;;2.70;99.90;;;;;;4934525;29;20047;-87
2023/11/17 05:42:34;;;;;;;12.95;5.40;;;2.70;99.90;;;;;;4928938;29;20044;-88
2023/11/17 05:45:05;;;;;;;11.00;5.50;;;2.70;99.90;;;;;;4915579;29;20509;-87
2023/11/17 05:47:32;;;;;;;9.80;5.45;;;2.90;99.90;;;;;;4915580;29;20600;-88
2023/11/17 05:50:01;;;;;;;12.32;6.22;;;2.70;99.90;;;;;;4915696;29;20044;-87
2023/11/17 05:52:27;;;;;;;10.25;6.30;;;2.70;99.90;;;;;;4934309;29;20046;-87
2023/11/17 05:54:54;;;;;;;12.82;7.25;;;2.70;99.90;;;;;;4922070;29;20119;-87
2023/11/17 05:57:20;;;;;;;12.35;6.90;;;2.80;99.90;;;;;;4926504;29;20482;-87
2023/11/17 05:59:50;;;;;;;15.82;7.22;;;2.80;99.90;;;;;;4916466;29;20139;-88
2023/11/17 06:02:16;;;;;;;16.35;7.55;;;3.40;99.90;;;;;;4934871;29;20501;-87
2023/11/17 06:04:43;;;;;;;14.50;8.23;;;2.80;99.90;;;;;;4918766;29;20112;-87
2023/11/17 06:07:10;;;;;;;13.55;8.00;;;2.80;99.90;;;;;;4922125;29;20032;-88
2023/11/17 06:09:37;;;;;;;16.15;7.75;;;2.80;99.90;;;;;;4933621;29;20044;-87
2023/11/17 06:12:05;;;;;;;14.20;8.43;;;2.80;99.90;;;;;;4922530;29;20115;-88
2023/11/17 06:14:35;;;;;;;18.77;8.35;;;2.80;99.90;;;;;;4926694;29;20039;-88
2023/11/17 06:17:04;;;;;;;16.45;8.48;;;3.00;99.90;;;;;;4921122;29;20040;-88
2023/11/17 06:19:33;;;;;;;17.85;8.35;;;2.80;99.90;;;;;;4920470;29;20072;-88
2023/11/17 06:21:59;;;;;;;16.73;8.30;;;3.30;99.90;;;;;;4925693;29;20048;-87
2023/11/17 06:24:26;;;;;;;18.60;8.85;;;4.00;99.90;;;;;;4927387;29;20044;-88
2023/11/17 06:26:53;;;;;;;13.32;8.23;;;2.80;99.90;;;;;;4915628;29;20101;-88
2023/11/17 06:29:21;;;;;;;13.93;7.60;;;2.80;99.90;;;;;;4914993;29;20116;-87
2023/11/17 06:31:49;;;;;;;13.30;7.88;;;2.80;99.90;;;;;;4915348;29;20040;-88
2023/11/17 06:34:16;;;;;;;12.88;8.35;;;2.80;99.90;;;;;;4927606;29;20414;-88
2023/11/17 06:36:44;;;;;;;15.70;8.13;;;2.70;99.90;;;;;;4940778;29;20040;-88
2023/11/17 06:39:16;;;;;;;16.35;8.40;;;2.70;99.90;;;;;;4917925;29;20043;-87
2023/11/17 06:41:49;;;;;;;20.75;8.38;;;2.60;99.90;;;;;;4918349;29;20041;-87
2023/11/17 06:44:17;;;;;;;13.98;8.23;;;2.60;99.90;;;;;;4924556;29;20040;-87
2023/11/17 06:46:48;;;;;;;17.73;8.30;;;2.60;99.90;;;;;;4924520;29;20048;-87
2023/11/17 06:49:18;;;;;;;12.95;7.60;;;2.60;99.90;;;;;;4925378;29;20063;-88
2023/11/17 06:51:48;;;;;;;14.05;7.63;;;2.60;99.90;;;;;;4922717;29;20055;-87
2023/11/17 06:54:15;;;;;;;16.80;8.00;;;2.60;99.90;;;;;;4918051;29;20044;-88
2023/11/17 06:56:46;;;;;;;15.13;8.05;;;2.50;99.90;;;;;;4920889;29;20048;-87
2023/11/17 06:59:14;;;;;;;14.05;7.03;;;2.60;99.90;;;;;;4927343;29;20037;-88
2023/11/17 07:01:43;;;;;;;13.50;7.60;;;2.50;99.90;;;;;;4934492;29;20053;-88
2023/11/17 07:04:13;;;;;;;12.55;7.18;;;2.60;99.90;;;;;;4942117;29;20043;-87
2023/11/17 07:06:40;;;;;;;14.93;8.32;;;2.50;99.90;;;;;;4917884;29;20045;-88
2023/11/17 07:09:17;;;;;;;12.52;7.43;;;2.80;99.90;;;;;;4933900;29;20033;-87
2023/11/17 07:11:46;;;;;;;15.23;7.30;;;3.50;99.90;;;;;;4921492;29;20033;-88
2023/11/17 07:14:13;;;;;;;15.88;7.57;;;2.50;99.90;;;;;;4921533;29;20071;-88
2023/11/17 07:16:44;;;;;;;19.90;8.13;;;2.50;99.90;;;;;;4935688;29;20461;-88
2023/11/17 07:19:11;;;;;;;13.10;7.28;;;2.50;99.90;;;;;;4920588;29;20052;-87
2023/11/17 07:21:39;;;;;;;13.38;6.75;;;2.50;99.90;;;;;;4918054;29;20096;-87
2023/11/17 07:24:06;;;;;;;16.50;6.85;;;2.50;99.90;;;;;;4934069;29;20139;-88
2023/11/17 07:26:33;;;;;;;13.60;7.35;;;2.50;99.90;;;;;;4939726;29;20036;-87
2023/11/17 07:29:03;;;;;;;12.80;6.63;;;3.40;99.90;;;;;;4923882;29;20096;-88
2023/11/17 07:31:39;;;;;;;9.63;6.20;;;3.30;99.90;;;;;;4918040;29;20112;-89
2023/11/17 07:34:07;;;;;;;14.10;7.00;;;2.40;99.90;;;;;;4933203;29;20502;-87
2023/11/17 07:36:37;;;;;;;12.40;6.78;;;2.40;99.90;;;;;;4908737;29;20043;-88
2023/11/17 07:39:04;;;;;;;13.55;7.00;;;2.50;99.90;;;;;;4935495;29;20432;-87
2023/11/17 07:41:33;;;;;;;12.90;6.82;;;2.50;99.90;;;;;;4930351;29;20047;-87
2023/11/17 07:44:01;;;;;;;14.15;7.00;;;2.50;99.90;;;;;;4927337;29;20049;-86
2023/11/17 07:46:28;;;;;;;16.50;7.80;;;2.60;99.90;;;;;;4922918;29;20417;-87
2023/11/17 07:48:56;;;;;;;13.02;7.75;;;3.80;99.90;;;;;;4921215;29;20045;-85
2023/11/17 07:51:23;;;;;;;14.07;7.32;;;2.70;99.90;;;;;;4933899;29;20048;-86
2023/11/17 07:53:50;;;;;;;13.27;7.55;;;2.80;99.90;;;;;;4922288;29;20064;-86
2023/11/17 07:56:16;;;;;;;15.90;7.63;;;2.90;99.90;;;;;;4924952;29;20409;-86
2023/11/17 07:58:43;;;;;;;13.65;7.72;;;3.00;99.90;;;;;;4937139;29;20123;-85
2023/11/17 08:01:10;;;;;;;13.65;8.07;;;3.00;99.90;;;;;;4915925;29;20068;-87
2023/11/17 08:03:38;;;;;;;15.60;8.85;;;3.10;99.90;;;;;;4925751;29;20048;-87
2023/11/17 08:06:05;;;;;;;18.70;8.80;;;3.50;99.90;;;;;;4936440;29;20556;-87
2023/11/17 08:08:35;;;;;;;13.02;8.13;;;3.20;99.90;;;;;;4926455;29;20079;-84
2023/11/17 08:11:02;;;;;;;13.68;7.88;;;3.30;99.90;;;;;;4918177;29;20120;-84
2023/11/17 08:13:29;;;;;;;18.00;8.95;;;3.30;99.90;;;;;;4910113;29;20048;-85
2023/11/17 08:15:57;;;;;;;16.23;8.27;;;3.30;99.90;;;;;;4917058;29;20039;-84
2023/11/17 08:18:24;;;;;;;13.80;7.97;;;3.40;99.90;;;;;;4922315;29;20495;-84
2023/11/17 08:20:52;;;;;;;12.73;7.88;;;3.40;99.90;;;;;;4942029;29;20052;-84
2023/11/17 08:23:21;;;;;;;14.20;8.05;;;3.90;99.90;;;;;;4921901;29;20120;-84
2023/11/17 08:25:48;;;;;;;11.77;7.45;;;4.00;99.90;;;;;;4926266;29;20048;-84
2023/11/17 08:28:16;;;;;;;12.82;7.80;;;3.40;99.90;;;;;;4920723;29;20597;-84
2023/11/17 08:30:43;;;;;;;15.25;9.15;;;3.40;99.90;;;;;;4928467;29;20041;-84
2023/11/17 08:33:09;;;;;;;22.45;9.00;;;3.50;99.90;;;;;;4915498;29;20100;-87
2023/11/17 08:35:38;;;;;;;18.85;8.68;;;3.50;99.90;;;;;;4934985;29;20036;-85
2023/11/17 08:38:06;;;;;;;17.05;8.70;;;3.50;99.90;;;;;;4933006;29;20043;-85
2023/11/17 08:40:33;;;;;;;16.67;8.65;;;3.60;99.90;;;;;;4939471;29;20040;-85
2023/11/17 08:43:01;;;;;;;13.70;8.10;;;3.60;99.90;;;;;;4929655;29;20043;-85
2023/11/17 08:45:27;;;;;;;20.90;9.02;;;3.60;99.90;;;;;;4917523;29;20205;-85
2023/11/17 08:47:55;;;;;;;17.33;8.55;;;3.60;99.90;;;;;;4920934;29;20139;-84
2023/11/17 08:50:22;;;;;;;19.80;9.50;;;4.50;99.90;;;;;;4936057;29;20465;-84
2023/11/17 08:52:49;;;;;;;18.77;9.30;;;3.70;99.90;;;;;;4932463;29;20135;-84
2023/11/17 08:55:17;;;;;;;18.73;9.43;;;3.70;99.90;;;;;;4926419;29;20673;-85
2023/11/17 08:57:45;;;;;;;16.05;9.00;;;3.70;99.90;;;;;;4921015;29;20036;-85
2023/11/17 09:00:14;;;;;;;16.00;8.48;;;4.50;99.90;;;;;;4932854;29;20425;-80
2023/11/17 09:02:42;;;;;;;15.40;8.70;;;3.80;99.90;;;;;;4927439;29;20063;-81
2023/11/17 09:05:09;;;;;;;15.93;8.68;;;4.80;99.90;;;;;;4911957;29;20060;-80
2023/11/17 09:07:44;;;;;;;14.90;9.02;;;4.50;99.90;;;;;;4936631;29;20044;-80
2023/11/17 09:10:16;;;;;;;14.93;9.15;;;4.20;99.90;;;;;;4925168;29;20131;-80
2023/11/17 09:12:43;;;;;;;14.65;8.45;;;5.20;99.90;;;;;;4932149;29;20051;-80
2023/11/17 09:15:10;;;;;;;16.45;10.30;;;4.40;99.90;;;;;;4929984;29;20040;-80
2023/11/17 09:17:40;;;;;;;15.70;9.38;;;5.40;99.90;;;;;;4914966;29;20040;-80
2023/11/17 09:20:09;;;;;;;19.02;11.45;;;5.30;99.90;;;;;;4914801;29;20447;-80
2023/11/17 09:22:36;;;;;;;18.38;9.43;;;4.70;99.90;;;;;;4942468;29;20529;-81
2023/11/17 09:25:13;;;;;;;22.15;12.38;;;4.80;99.90;;;;;;4921591;29;20052;-80
2023/11/17 09:27:48;;;;;;;18.40;9.30;;;4.80;99.90;;;;;;4919126;29;20131;-80
2023/11/17 09:30:15;;;;;;;18.80;11.00;;;4.80;99.90;;;;;;4924753;29;20513;-80
2023/11/17 09:32:43;;;;;;;14.30;8.43;;;4.80;99.90;;;;;;4914912;29;20450;-80
2023/11/17 09:35:15;;;;;;;14.73;8.60;;;4.80;99.90;;;;;;4914682;29;20037;-80
2023/11/17 09:37:59;;;;;;;16.88;8.52;;;4.90;99.90;;;;;;4914654;29;20040;-81
2023/11/17 09:40:30;;;;;;;16.20;8.40;;;5.00;99.90;;;;;;4930027;29;20536;-80
2023/11/17 09:42:58;;;;;;;18.40;8.68;;;5.10;99.90;;;;;;4930476;29;20051;-81
2023/11/17 09:45:27;;;;;;;16.80;9.43;;;5.30;99.90;;;;;;4938112;29;20072;-80
2023/11/17 09:48:01;;;;;;;17.10;9.63;;;5.40;99.90;;;;;;4926804;29;20072;-80
2023/11/17 09:50:29;;;;;;;17.77;9.93;;;5.40;99.90;;;;;;4925586;29;20044;-80
2023/11/17 09:52:59;;;;;;;16.30;10.13;;;5.50;99.90;;;;;;4920438;29;20112;-80
2023/11/17 09:55:31;;;;;;;19.55;8.80;;;5.50;99.90;;;;;;4924062;29;20063;-80
2023/11/17 09:58:02;;;;;;;15.68;8.57;;;5.50;99.90;;;;;;4929229;29;20069;-81
2023/11/17 10:00:29;;;;;;;14.20;8.77;;;5.60;99.90;;;;;;4925914;29;20096;-81
2023/11/17 10:02:59;;;;;;;16.70;9.02;;;5.70;99.90;;;;;;4923026;29;20051;-80
2023/11/17 10:05:28;;;;;;;15.40;9.02;;;5.90;99.90;;;;;;4920855;29;20848;-81
2023/11/17 10:07:59;;;;;;;20.27;9.90;;;6.00;99.90;;;;;;4935069;29;20076;-81
2023/11/17 10:10:27;;;;;;;14.00;8.77;;;6.10;99.90;;;;;;4949135;29;20044;-81
2023/11/17 10:12:57;;;;;;;17.60;9.02;;;6.20;99.90;;;;;;4931378;29;20045;-80
2023/11/17 10:15:28;;;;;;;14.60;8.43;;;6.30;99.90;;;;;;4945507;29;20092;-81
2023/11/17 10:18:12;;;;;;;15.60;8.63;;;6.40;99.90;;;;;;4944853;29;20048;-80
2023/11/17 10:20:39;;;;;;;13.40;7.88;;;6.50;99.90;;;;;;4942767;29;20051;-81
2023/11/17 10:23:06;;;;;;;15.40;8.30;;;7.10;99.90;;;;;;4930695;29;20048;-81
2023/11/17 10:25:33;;;;;;;17.63;7.97;;;6.60;99.90;;;;;;4945079;29;20084;-80
2023/11/17 10:28:04;;;;;;;15.18;8.32;;;6.70;99.90;;;;;;4921245;29;20121;-82
2023/11/17 10:30:37;;;;;;;15.00;7.93;;;6.70;99.90;;;;;;4952052;29;20047;-80
2023/11/17 10:33:25;;;;;;;12.80;7.45;;;6.70;99.90;;;;;;4931490;29;20045;-81
2023/11/17 10:36:12;;;;;;;14.52;7.90;;;6.70;99.90;;;;;;4933944;29;20533;-81
2023/11/17 10:38:40;;;;;;;13.88;7.65;;;6.70;99.90;;;;;;4921070;29;20132;-80
2023/11/17 10:41:22;;;;;;;15.15;8.18;;;7.20;99.90;;;;;;4933616;29;20049;-80
2023/11/17 10:43:49;;;;;;;14.32;7.35;;;6.80;99.90;;;;;;4917924;29;20036;-81
2023/11/17 10:46:47;;;;;;;14.10;7.32;;;7.30;99.90;;;;;;4917712;29;20092;-81
2023/11/17 10:49:19;;;;;;;15.45;7.15;;;7.00;99.90;;;;;;4910285;29;20391;-80
2023/11/17 10:51:50;;;;;;;11.27;6.90;;;7.00;99.90;;;;;;4949706;29;20131;-80
2023/11/17 10:54:18;;;;;;;13.85;7.05;;;7.00;99.90;;;;;;4923459;29;20048;-81
2023/11/17 10:56:47;;;;;;;12.52;7.03;;;8.00;99.90;;;;;;4917345;29;20047;-81
2023/11/17 10:59:19;;;;;;;13.13;6.43;;;8.00;99.90;;;;;;4945364;29;20091;-81
2023/11/17 11:01:47;;;;;;;11.98;6.50;;;7.60;99.90;;;;;;4947305;29;20056;-81
2023/11/17 11:04:17;;;;;;;13.90;6.75;;;7.30;99.90;;;;;;4918850;29;20051;-80
2023/11/17 11:06:44;;;;;;;11.32;7.10;;;7.30;99.90;;;;;;4930268;29;20104;-81
2023/11/17 11:09:17;;;;;;;12.20;6.78;;;7.40;99.90;;;;;;4928251;29;20040;-81
2023/11/17 11:11:50;;;;;;;12.32;6.85;;;8.30;99.90;;;;;;4948172;29;20040;-81
2023/11/17 11:14:20;;;;;;;10.38;6.50;;;7.50;99.90;;;;;;4938756;29;20045;-80
2023/11/17 11:16:48;;;;;;;14.20;6.43;;;8.00;99.90;;;;;;4929439;29;20041;-81
2023/11/17 11:19:16;;;;;;;13.75;6.97;;;7.80;99.90;;;;;;4927505;29;20499;-81
2023/11/17 11:21:49;;;;;;;11.30;6.05;;;7.90;99.90;;;;;;4931027;29;20434;-81
2023/11/17 11:24:18;;;;;;;11.52;6.70;;;8.10;99.90;;;;;;4923895;29;20136;-80
2023/11/17 11:26:47;;;;;;;13.48;6.35;;;8.30;99.90;;;;;;4927052;29;20043;-81
2023/11/17 11:29:19;;;;;;;11.05;6.50;;;8.10;99.90;;;;;;4950340;29;20068;-81
2023/11/17 11:31:47;;;;;;;9.32;5.68;;;8.20;99.90;;;;;;4917161;29;20067;-81
2023/11/17 11:34:20;;;;;;;11.73;5.50;;;8.60;99.90;;;;;;4932551;29;20075;-81
2023/11/17 11:36:48;;;;;;;10.98;5.90;;;8.30;99.90;;;;;;4939043;29;20037;-81
2023/11/17 11:39:19;;;;;;;8.35;5.13;;;8.30;99.90;;;;;;4929169;29;20077;-81
2023/11/17 11:41:46;;;;;;;9.95;5.60;;;9.20;99.90;;;;;;4932264;29;20036;-82
2023/11/17 11:44:13;;;;;;;10.02;4.60;;;8.20;99.90;;;;;;4916670;29;20517;-81
2023/11/17 11:46:40;;;;;;;8.73;4.93;;;8.20;99.90;;;;;;4913015;29;20045;-82
2023/11/17 11:49:12;;;;;;;7.88;4.90;;;8.90;99.90;;;;;;4943842;29;20044;-81
2023/11/17 11:51:54;;;;;;;12.40;4.85;;;8.20;99.90;;;;;;4917119;29;20505;-82
2023/11/17 11:54:23;;;;;;;12.05;5.00;;;8.40;99.90;;;;;;4912972;29;20088;-81
2023/11/17 11:56:49;;;;;;;12.68;5.03;;;8.30;99.90;;;;;;4899777;29;20041;-82
2023/11/17 11:59:16;;;;;;;7.20;4.32;;;8.30;99.90;;;;;;4917538;29;20176;-81
2023/11/17 12:01:46;;;;;;;10.68;4.60;;;9.20;99.90;;;;;;4923569;29;20135;-81
2023/11/17 12:04:12;;;;;;;10.98;3.88;;;8.30;99.90;;;;;;4933660;29;20044;-82
2023/11/17 12:06:45;;;;;;;5.50;3.15;;;8.40;99.90;;;;;;4926861;29;20054;-81
2023/11/17 12:09:21;;;;;;;5.18;2.70;;;8.20;99.90;;;;;;4916035;29;20068;-81
2023/11/17 12:11:50;;;;;;;6.25;3.03;;;8.20;99.90;;;;;;4941603;29;20043;-83
2023/11/17 12:14:24;;;;;;;5.55;2.33;;;8.40;99.90;;;;;;4930791;29;20494;-81
2023/11/17 12:16:55;;;;;;;4.95;2.55;;;8.10;99.90;;;;;;4928442;29;20489;-82
2023/11/17 12:19:26;;;;;;;7.22;2.92;;;8.10;99.90;;;;;;4949397;29;20048;-81
2023/11/17 12:21:59;;;;;;;4.60;2.40;;;8.00;99.90;;;;;;4916521;29;20041;-86
2023/11/17 12:24:27;;;;;;;4.25;1.95;;;7.90;99.90;;;;;;4901782;29;20032;-86
2023/11/17 12:26:58;;;;;;;2.35;1.02;;;7.90;99.90;;;;;;4916506;29;20041;-86
2023/11/17 12:29:27;;;;;;;2.72;1.20;;;7.80;99.90;;;;;;4917120;29;20039;-86
2023/11/17 12:32:04;;;;;;;3.30;1.17;;;7.90;99.90;;;;;;4941998;29;20084;-85
2023/11/17 12:34:44;;;;;;;3.08;1.60;;;7.80;99.90;;;;;;4928782;29;20062;-86
2023/11/17 12:37:13;;;;;;;1.77;1.00;;;7.40;99.90;;;;;;4901913;29;20036;-87
2023/11/17 12:39:41;;;;;;;3.22;1.38;;;7.30;99.90;;;;;;4931675;29;20049;-87
2023/11/17 12:42:21;;;;;;;1.35;0.90;;;7.10;99.90;;;;;;4934595;29;20036;-86
2023/11/17 12:44:48;;;;;;;2.53;1.00;;;7.10;99.90;;;;;;4917193;29;20413;-87
2023/11/17 12:47:16;;;;;;;3.05;1.05;;;7.10;99.90;;;;;;4921231;29;20036;-86
2023/11/17 12:49:53;;;;;;;1.45;0.80;;;6.90;99.90;;;;;;4937234;29;20048;-86
2023/11/17 12:52:23;;;;;;;4.15;0.90;;;7.50;99.90;;;;;;4921639;29;20040;-87
2023/11/17 12:55:07;;;;;;;1.20;0.80;;;6.80;99.90;;;;;;4926523;29;20135;-86
2023/11/17 12:57:35;;;;;;;1.90;0.90;;;6.70;99.90;;;;;;4926003;29;20493;-87
2023/11/17 13:00:16;;;;;;;2.05;0.90;;;7.40;99.90;;;;;;4917235;29;20053;-87
2023/11/17 13:02:43;;;;;;;1.55;0.80;;;6.70;99.90;;;;;;4907080;29;20052;-86